Time;durP1;ratioP1;P1;durP2;ratioP2;P2;SDS_P1;SDS_P2;PMS_P1;PMS_P2;Temp;Humidity;BMP_temperature;BMP_pressure;BME280_temperature;BME280_humidity;BME280_pressure;Samples;Min_cycle;Max_cycle;Signal;HPM_P1;HPM_P2
2021/01/24 00:00:22;;;;;;;30.47;17.73;;;7.00;76.20;;;;;;5034237;28;20117;-71
2021/01/24 00:02:48;;;;;;;28.27;17.83;;;6.90;76.00;;;;;;5038309;28;20395;-71
2021/01/24 00:05:14;;;;;;;28.27;17.58;;;6.90;76.10;;;;;;5012544;28;20033;-72
2021/01/24 00:07:40;;;;;;;29.37;17.13;;;7.00;76.40;;;;;;5050561;28;20188;-71
2021/01/24 00:10:06;;;;;;;31.20;18.60;;;6.90;76.40;;;;;;5031712;28;20223;-72
2021/01/24 00:12:32;;;;;;;28.13;17.67;;;6.90;76.60;;;;;;5049735;28;20110;-71
2021/01/24 00:14:57;;;;;;;32.37;17.77;;;6.90;76.70;;;;;;5031513;28;20045;-72
2021/01/24 00:17:23;;;;;;;28.80;17.10;;;6.90;76.70;;;;;;5041137;28;20062;-72
2021/01/24 00:19:48;;;;;;;33.23;17.67;;;6.80;76.80;;;;;;5035369;28;20445;-71
2021/01/24 00:22:14;;;;;;;30.80;18.77;;;6.80;77.10;;;;;;5030651;28;20042;-72
2021/01/24 00:24:40;;;;;;;29.10;18.33;;;6.80;77.10;;;;;;5031152;28;20056;-71
2021/01/24 00:27:05;;;;;;;30.37;18.23;;;6.70;77.10;;;;;;5044378;28;20040;-72
2021/01/24 00:29:31;;;;;;;28.57;17.50;;;6.70;77.30;;;;;;5028561;28;20041;-72
2021/01/24 00:31:56;;;;;;;28.03;17.93;;;6.70;77.50;;;;;;5041824;28;20154;-71
2021/01/24 00:34:22;;;;;;;30.67;18.57;;;6.70;77.60;;;;;;5045331;28;20037;-71
2021/01/24 00:36:48;;;;;;;32.77;19.87;;;6.70;77.80;;;;;;5036368;28;20394;-72
2021/01/24 00:39:13;;;;;;;36.17;20.67;;;6.60;77.80;;;;;;5037683;28;20105;-71
2021/01/24 00:41:39;;;;;;;34.03;20.50;;;6.60;77.80;;;;;;5012709;28;20372;-71
2021/01/24 00:44:05;;;;;;;30.43;18.40;;;6.60;77.80;;;;;;5015897;28;20183;-72
2021/01/24 00:46:31;;;;;;;31.80;19.23;;;6.60;77.80;;;;;;5010896;28;20037;-72
2021/01/24 00:48:56;;;;;;;31.83;20.17;;;6.60;77.80;;;;;;5015692;28;20117;-72
2021/01/24 00:51:22;;;;;;;33.10;18.03;;;6.60;77.90;;;;;;5003133;28;20029;-72
2021/01/24 00:53:47;;;;;;;30.77;20.97;;;6.50;77.90;;;;;;5036560;28;20080;-71
2021/01/24 00:56:13;;;;;;;32.53;19.67;;;6.60;77.90;;;;;;5019953;28;20037;-72
2021/01/24 00:58:39;;;;;;;30.53;17.83;;;6.60;77.70;;;;;;5035112;28;20040;-72
2021/01/24 01:01:04;;;;;;;28.83;17.47;;;6.60;77.50;;;;;;5037790;28;20061;-71
2021/01/24 01:03:30;;;;;;;24.83;14.20;;;6.60;77.30;;;;;;5035619;28;20459;-72
2021/01/24 01:05:56;;;;;;;25.20;14.23;;;6.60;77.20;;;;;;5030948;28;20390;-71
2021/01/24 01:08:21;;;;;;;25.83;14.63;;;6.50;77.50;;;;;;5037248;28;20040;-72
2021/01/24 01:10:47;;;;;;;25.63;14.40;;;6.60;77.50;;;;;;5048240;28;20106;-72
2021/01/24 01:13:12;;;;;;;23.83;14.70;;;6.50;77.10;;;;;;5043793;28;20037;-72
2021/01/24 01:15:38;;;;;;;25.53;14.37;;;6.50;77.10;;;;;;5006618;28;20087;-72
2021/01/24 01:18:05;;;;;;;24.77;14.27;;;6.50;77.00;;;;;;5029658;28;20137;-72
2021/01/24 01:20:31;;;;;;;22.63;13.17;;;6.40;77.10;;;;;;5025605;28;20531;-71
2021/01/24 01:22:56;;;;;;;29.00;14.67;;;6.40;77.40;;;;;;5046320;28;20120;-71
2021/01/24 01:25:23;;;;;;;25.23;13.53;;;6.40;77.50;;;;;;5041190;28;20037;-71
2021/01/24 01:27:49;;;;;;;21.93;13.10;;;6.40;77.20;;;;;;5032173;28;20083;-72
2021/01/24 01:30:15;;;;;;;26.47;13.23;;;6.40;77.20;;;;;;5035093;28;20026;-72
2021/01/24 01:32:40;;;;;;;24.20;14.97;;;6.40;77.20;;;;;;5031266;28;20313;-72
2021/01/24 01:35:08;;;;;;;29.60;16.50;;;6.30;77.40;;;;;;5010246;28;20048;-72
2021/01/24 01:37:33;;;;;;;23.27;14.37;;;6.30;77.50;;;;;;5034836;28;20032;-71
2021/01/24 01:39:59;;;;;;;27.40;15.83;;;6.30;77.70;;;;;;5030416;28;20038;-71
2021/01/24 01:42:25;;;;;;;31.60;16.23;;;6.30;77.70;;;;;;5035945;28;20329;-71
2021/01/24 01:44:50;;;;;;;25.00;15.00;;;6.30;77.70;;;;;;5047845;28;20059;-71
2021/01/24 01:47:24;;;;;;;25.90;15.73;;;6.30;77.70;;;;;;5050671;28;20032;-72
2021/01/24 01:49:57;;;;;;;29.03;16.13;;;6.20;77.70;;;;;;5033886;28;20474;-71
2021/01/24 01:52:26;;;;;;;23.53;13.63;;;6.20;78.00;;;;;;5052900;28;20025;-72
2021/01/24 01:54:53;;;;;;;25.40;12.53;;;6.20;78.10;;;;;;5034757;28;20137;-71
2021/01/24 01:57:20;;;;;;;24.50;13.40;;;6.20;78.00;;;;;;5044839;28;20115;-72
2021/01/24 01:59:46;;;;;;;26.13;13.23;;;6.20;77.70;;;;;;5046196;28;20040;-71
2021/01/24 02:02:25;;;;;;;22.17;13.53;;;6.20;77.70;;;;;;5055446;28;20052;-71
2021/01/24 02:04:55;;;;;;;22.23;11.90;;;6.10;77.90;;;;;;5063880;28;20039;-71
2021/01/24 02:07:30;;;;;;;22.23;12.50;;;6.10;78.00;;;;;;5053326;28;20139;-71
2021/01/24 02:10:05;;;;;;;21.40;12.53;;;6.00;78.20;;;;;;5057434;28;20045;-71
2021/01/24 02:12:46;;;;;;;22.73;13.47;;;6.00;78.50;;;;;;5066295;28;20032;-71
2021/01/24 02:15:16;;;;;;;24.83;12.07;;;6.00;78.60;;;;;;5059784;28;20032;-72
2021/01/24 02:17:58;;;;;;;21.10;12.40;;;6.00;78.70;;;;;;5069868;28;20029;-71
2021/01/24 02:20:42;;;;;;;23.33;12.33;;;6.00;78.60;;;;;;5069326;28;20021;-72
2021/01/24 02:23:13;;;;;;;21.13;10.55;;;6.00;78.50;;;;;;5069474;28;20116;-72
2021/01/24 02:25:44;;;;;;;19.00;11.00;;;6.10;78.50;;;;;;5067384;28;20056;-71
2021/01/24 02:28:23;;;;;;;19.60;9.50;;;6.10;78.40;;;;;;5053445;28;20064;-72
2021/01/24 02:30:49;;;;;;;22.03;9.90;;;6.10;78.40;;;;;;5059506;28;20024;-72
2021/01/24 02:33:19;;;;;;;18.53;8.63;;;6.10;78.70;;;;;;5070425;28;20036;-72
2021/01/24 02:35:50;;;;;;;18.83;10.07;;;6.00;78.40;;;;;;5071902;28;20028;-71
2021/01/24 02:38:19;;;;;;;14.90;7.47;;;6.00;78.50;;;;;;5058115;28;20025;-72
2021/01/24 02:40:46;;;;;;;13.87;7.80;;;6.00;78.60;;;;;;5060971;28;20371;-71
2021/01/24 02:43:12;;;;;;;17.07;8.00;;;6.00;78.60;;;;;;5071088;28;20037;-71
2021/01/24 02:45:43;;;;;;;13.90;8.20;;;5.90;78.70;;;;;;5064843;28;20104;-71
2021/01/24 02:48:11;;;;;;;17.50;7.80;;;6.00;78.90;;;;;;5070680;28;20119;-71
2021/01/24 02:50:38;;;;;;;16.00;7.83;;;6.00;78.80;;;;;;5062128;28;20048;-72
2021/01/24 02:53:05;;;;;;;13.93;7.47;;;6.10;78.70;;;;;;5065831;28;20515;-72
2021/01/24 02:55:31;;;;;;;13.83;7.60;;;6.20;78.60;;;;;;5069870;28;20046;-72
2021/01/24 02:57:57;;;;;;;18.43;9.07;;;6.20;78.30;;;;;;5054373;28;20120;-72
2021/01/24 03:00:24;;;;;;;13.70;7.37;;;6.30;78.30;;;;;;5061150;28;20111;-72
2021/01/24 03:02:50;;;;;;;14.83;6.83;;;6.30;78.20;;;;;;5043007;28;20045;-72
2021/01/24 03:05:16;;;;;;;13.90;6.17;;;6.40;78.20;;;;;;5025090;28;20067;-72
2021/01/24 03:07:43;;;;;;;14.57;6.73;;;6.50;77.90;;;;;;5051462;28;20128;-71
2021/01/24 03:10:10;;;;;;;12.60;6.77;;;6.50;77.70;;;;;;5039385;28;20029;-72
2021/01/24 03:12:41;;;;;;;15.40;7.43;;;8.60;78.80;;;;;;5032064;28;20044;-72
2021/01/24 03:15:08;;;;;;;14.83;7.17;;;6.50;77.50;;;;;;5045212;28;20029;-71
2021/01/24 03:17:37;;;;;;;13.23;7.33;;;6.50;77.60;;;;;;5017797;28;20029;-72
2021/01/24 03:20:07;;;;;;;13.27;6.37;;;6.60;77.60;;;;;;5040833;28;20163;-72
2021/01/24 03:22:34;;;;;;;13.30;7.13;;;6.60;77.40;;;;;;5036627;28;20036;-72
2021/01/24 03:25:02;;;;;;;14.43;6.97;;;6.70;77.20;;;;;;5018890;28;20187;-72
2021/01/24 03:27:29;;;;;;;15.20;7.73;;;6.70;77.20;;;;;;5049284;28;20487;-72
2021/01/24 03:29:57;;;;;;;15.77;7.07;;;6.70;77.10;;;;;;5047806;28;20045;-71
2021/01/24 03:32:22;;;;;;;15.27;7.47;;;6.70;77.00;;;;;;5046170;28;20033;-72
2021/01/24 03:34:48;;;;;;;12.47;6.17;;;6.70;77.00;;;;;;5043356;28;20025;-71
2021/01/24 03:37:14;;;;;;;13.93;7.90;;;6.70;77.00;;;;;;5044554;28;20479;-72
2021/01/24 03:39:39;;;;;;;14.03;8.17;;;6.80;77.00;;;;;;5048942;28;20060;-71
2021/01/24 03:42:05;;;;;;;15.93;7.60;;;6.80;76.80;;;;;;5031544;28;20483;-72
2021/01/24 03:44:30;;;;;;;15.53;9.13;;;6.80;76.60;;;;;;5043229;28;20115;-72
2021/01/24 03:46:56;;;;;;;19.17;9.77;;;6.80;76.70;;;;;;5042280;28;20096;-71
2021/01/24 03:49:22;;;;;;;22.47;10.17;;;6.80;76.60;;;;;;5022240;28;20041;-72
2021/01/24 03:51:47;;;;;;;16.50;8.73;;;6.80;76.60;;;;;;5047569;28;20112;-72
2021/01/24 03:54:13;;;;;;;20.70;9.30;;;6.80;76.50;;;;;;5050081;28;20336;-72
2021/01/24 03:56:39;;;;;;;20.37;9.30;;;6.80;76.40;;;;;;5040756;28;20249;-72
2021/01/24 03:59:05;;;;;;;15.23;8.27;;;6.90;76.40;;;;;;5036864;28;20121;-72
2021/01/24 04:01:32;;;;;;;28.47;11.80;;;6.80;76.20;;;;;;5049958;28;20053;-72
2021/01/24 04:03:58;;;;;;;21.60;10.47;;;6.90;76.30;;;;;;5047403;28;20040;-72
2021/01/24 04:06:24;;;;;;;19.13;9.70;;;6.80;76.40;;;;;;5042443;28;20025;-72
2021/01/24 04:08:50;;;;;;;18.47;9.50;;;6.80;76.50;;;;;;5041991;28;20099;-72
2021/01/24 04:11:17;;;;;;;17.90;10.33;;;6.80;76.60;;;;;;5016951;28;20124;-71
2021/01/24 04:13:43;;;;;;;19.43;10.43;;;6.80;76.60;;;;;;5005990;28;20103;-72
2021/01/24 04:16:10;;;;;;;19.90;9.30;;;6.80;76.40;;;;;;5038310;28;20030;-72
2021/01/24 04:18:36;;;;;;;20.73;11.00;;;6.80;76.40;;;;;;5030888;28;20057;-71
2021/01/24 04:21:02;;;;;;;16.90;10.27;;;6.80;76.60;;;;;;5040844;28;20064;-71
2021/01/24 04:23:28;;;;;;;20.70;10.93;;;6.80;76.70;;;;;;5043538;28;20076;-71
2021/01/24 04:25:53;;;;;;;22.30;10.93;;;6.80;76.70;;;;;;5028685;28;20399;-71
2021/01/24 04:28:19;;;;;;;18.53;10.10;;;6.80;76.80;;;;;;5042878;28;20037;-72
2021/01/24 04:30:44;;;;;;;20.20;10.07;;;6.80;76.80;;;;;;5049671;28;20143;-71
2021/01/24 04:33:10;;;;;;;19.40;9.57;;;6.70;77.00;;;;;;5045412;28;20041;-71
2021/01/24 04:35:36;;;;;;;19.57;9.20;;;6.70;77.00;;;;;;5038525;28;20032;-71
2021/01/24 04:38:02;;;;;;;21.70;10.67;;;6.60;77.10;;;;;;5013259;28;20029;-70
2021/01/24 04:40:27;;;;;;;19.47;9.97;;;6.50;77.20;;;;;;5038754;28;20044;-71
2021/01/24 04:42:54;;;;;;;22.33;10.87;;;6.40;77.40;;;;;;5031770;28;20049;-71
2021/01/24 04:45:20;;;;;;;22.73;10.70;;;6.40;77.70;;;;;;5031599;28;20494;-71
2021/01/24 04:47:46;;;;;;;20.37;10.17;;;6.40;77.80;;;;;;5022587;28;20033;-71
2021/01/24 04:50:13;;;;;;;20.83;10.77;;;6.40;77.80;;;;;;5041238;28;20043;-71
2021/01/24 04:52:39;;;;;;;16.07;10.17;;;6.40;77.90;;;;;;5043849;28;20044;-71
2021/01/24 04:55:05;;;;;;;18.53;9.70;;;6.40;78.00;;;;;;5042487;28;20051;-71
2021/01/24 04:57:31;;;;;;;19.83;10.50;;;6.40;78.10;;;;;;5033153;28;20033;-71
2021/01/24 04:59:57;;;;;;;21.43;9.97;;;6.40;78.30;;;;;;5014068;28;20060;-71
2021/01/24 05:02:23;;;;;;;18.90;8.87;;;6.40;78.30;;;;;;5044113;28;20088;-71
2021/01/24 05:04:49;;;;;;;20.50;10.23;;;6.30;78.40;;;;;;5015726;28;20064;-71
2021/01/24 05:07:16;;;;;;;17.67;9.50;;;6.30;78.40;;;;;;5017783;28;20030;-71
2021/01/24 05:09:45;;;;;;;16.87;9.10;;;6.40;78.40;;;;;;5040953;28;20033;-72
2021/01/24 05:12:10;;;;;;;19.00;9.50;;;6.40;78.40;;;;;;5034071;28;20033;-71
2021/01/24 05:14:36;;;;;;;18.87;9.47;;;6.30;78.40;;;;;;5036294;28;20106;-71
2021/01/24 05:17:02;;;;;;;15.30;8.63;;;5.00;77.70;;;;;;5047748;28;20379;-71
2021/01/24 05:19:28;;;;;;;19.90;9.37;;;6.40;78.50;;;;;;5029175;28;20036;-72
2021/01/24 05:21:53;;;;;;;26.50;10.20;;;6.40;78.30;;;;;;5050126;28;20356;-71
2021/01/24 05:24:21;;;;;;;18.83;10.27;;;6.40;78.40;;;;;;5048144;28;20108;-71
2021/01/24 05:26:48;;;;;;;18.33;9.50;;;6.30;78.40;;;;;;5049756;28;20549;-71
2021/01/24 05:29:25;;;;;;;22.40;11.13;;;6.40;78.40;;;;;;5049792;28;20033;-71
2021/01/24 05:31:55;;;;;;;18.30;9.00;;;6.40;78.30;;;;;;5030606;28;20040;-71
2021/01/24 05:34:25;;;;;;;19.83;10.30;;;6.40;78.30;;;;;;5043241;28;20038;-71
2021/01/24 05:36:52;;;;;;;17.50;9.50;;;6.40;78.40;;;;;;5046765;28;20034;-71
2021/01/24 05:39:18;;;;;;;17.60;9.03;;;6.40;78.40;;;;;;5051539;28;20076;-71
2021/01/24 05:41:49;;;;;;;21.97;10.83;;;6.40;78.30;;;;;;5035924;28;20207;-71
2021/01/24 05:44:16;;;;;;;22.73;11.30;;;6.50;78.00;;;;;;5041618;28;20029;-71
2021/01/24 05:46:42;;;;;;;19.73;10.73;;;6.50;78.00;;;;;;5042963;28;20033;-71
2021/01/24 05:49:10;;;;;;;18.80;9.90;;;6.40;77.70;;;;;;5038667;28;20030;-72
2021/01/24 05:51:36;;;;;;;16.90;9.90;;;6.40;77.90;;;;;;5045329;28;20111;-71
2021/01/24 05:54:02;;;;;;;15.20;8.03;;;6.30;78.10;;;;;;5039993;28;20118;-71
2021/01/24 05:56:29;;;;;;;16.70;9.63;;;6.30;78.20;;;;;;5033045;28;20039;-71
2021/01/24 05:59:03;;;;;;;16.73;9.33;;;6.30;78.40;;;;;;5016672;28;20030;-71
2021/01/24 06:01:30;;;;;;;17.33;9.10;;;6.30;78.30;;;;;;5052795;28;20111;-71
2021/01/24 06:03:58;;;;;;;17.53;9.07;;;6.30;78.20;;;;;;5054758;28;20036;-71
2021/01/24 06:06:24;;;;;;;17.53;8.90;;;6.30;78.20;;;;;;5071758;28;20040;-71
2021/01/24 06:08:50;;;;;;;16.57;8.40;;;6.30;78.20;;;;;;5073516;28;20102;-71
2021/01/24 06:11:17;;;;;;;14.50;7.50;;;6.20;78.20;;;;;;5055346;28;20025;-71
2021/01/24 06:13:46;;;;;;;12.57;7.33;;;6.20;78.40;;;;;;5040175;28;20106;-71
2021/01/24 06:16:34;;;;;;;14.67;7.90;;;6.20;78.40;;;;;;5041716;28;20490;-71
2021/01/24 06:19:04;;;;;;;14.80;7.00;;;6.10;78.50;;;;;;5052836;28;20036;-71
2021/01/24 06:21:40;;;;;;;13.07;7.33;;;6.10;78.60;;;;;;5050472;28;20028;-72
2021/01/24 06:24:12;;;;;;;15.30;7.10;;;6.10;78.70;;;;;;5073274;28;20138;-71
2021/01/24 06:26:39;;;;;;;11.47;6.23;;;6.10;78.70;;;;;;5067513;28;20604;-71
2021/01/24 06:29:08;;;;;;;10.63;5.90;;;6.10;78.70;;;;;;5038411;28;20031;-71
2021/01/24 06:31:34;;;;;;;10.00;5.83;;;6.10;78.70;;;;;;5070678;28;20044;-71
2021/01/24 06:34:06;;;;;;;14.13;6.17;;;6.00;78.70;;;;;;5063558;28;20029;-71
2021/01/24 06:36:37;;;;;;;12.07;6.07;;;6.00;78.90;;;;;;5044514;28;20043;-71
2021/01/24 06:39:03;;;;;;;19.43;6.37;;;5.90;79.00;;;;;;5067336;28;20035;-71
2021/01/24 06:41:46;;;;;;;10.33;5.97;;;5.90;79.10;;;;;;5063073;28;20090;-71
2021/01/24 06:44:40;;;;;;;12.43;5.57;;;5.90;79.40;;;;;;5058623;28;20028;-71
2021/01/24 06:47:36;;;;;;;10.97;5.50;;;5.90;79.40;;;;;;5042382;28;20017;-71
2021/01/24 06:50:02;;;;;;;11.07;4.90;;;6.00;79.30;;;;;;5032813;28;20048;-71
2021/01/24 06:52:28;;;;;;;12.33;7.00;;;6.10;79.20;;;;;;5063213;28;20062;-71
2021/01/24 06:54:53;;;;;;;11.83;5.10;;;6.10;79.10;;;;;;5042829;28;20131;-71
2021/01/24 06:57:29;;;;;;;11.20;4.77;;;6.20;79.00;;;;;;5072404;28;20462;-71
2021/01/24 07:00:15;;;;;;;10.57;5.07;;;6.20;78.80;;;;;;5071501;28;20489;-71
2021/01/24 07:02:41;;;;;;;11.23;4.97;;;6.10;78.80;;;;;;5053073;28;20045;-71
2021/01/24 07:05:23;;;;;;;13.43;6.00;;;6.20;78.80;;;;;;5068921;28;20032;-71
2021/01/24 07:07:52;;;;;;;12.17;5.50;;;6.30;78.70;;;;;;5057195;28;20037;-72
2021/01/24 07:10:37;;;;;;;11.07;5.73;;;6.30;78.70;;;;;;5069213;28;20105;-71
2021/01/24 07:13:25;;;;;;;13.47;5.33;;;6.30;78.60;;;;;;5062517;28;20126;-71
2021/01/24 07:16:06;;;;;;;9.57;5.43;;;6.40;78.50;;;;;;5070417;28;20035;-71
2021/01/24 07:18:43;;;;;;;11.77;6.03;;;6.40;78.30;;;;;;5069529;28;20501;-71
2021/01/24 07:21:10;;;;;;;14.93;6.50;;;6.50;78.30;;;;;;5086074;28;20033;-71
2021/01/24 07:23:38;;;;;;;11.60;6.03;;;6.40;78.00;;;;;;5057039;28;20029;-71
2021/01/24 07:26:05;;;;;;;12.70;6.37;;;6.40;78.00;;;;;;5061325;28;20127;-72
2021/01/24 07:28:33;;;;;;;14.57;6.23;;;6.40;78.00;;;;;;5070021;28;20027;-71
2021/01/24 07:31:04;;;;;;;9.67;5.00;;;6.40;77.80;;;;;;5064090;28;20036;-72
2021/01/24 07:33:30;;;;;;;9.23;5.13;;;6.40;77.70;;;;;;5064681;28;20056;-72
2021/01/24 07:36:01;;;;;;;9.67;4.97;;;6.40;77.40;;;;;;5059432;28;20119;-72
2021/01/24 07:38:27;;;;;;;10.33;5.17;;;6.40;77.60;;;;;;5067872;28;20076;-72
2021/01/24 07:40:57;;;;;;;9.73;4.83;;;6.30;77.60;;;;;;5060976;28;20036;-72
2021/01/24 07:43:24;;;;;;;10.40;4.60;;;6.30;77.60;;;;;;5070827;28;20051;-72
2021/01/24 07:45:50;;;;;;;9.97;5.07;;;6.30;77.60;;;;;;5069272;28;20492;-72
2021/01/24 07:48:16;;;;;;;10.07;5.03;;;6.30;77.50;;;;;;5068248;28;20048;-73
2021/01/24 07:50:42;;;;;;;8.93;4.23;;;6.20;77.30;;;;;;5051937;28;20037;-71
2021/01/24 07:53:08;;;;;;;9.73;5.37;;;6.40;77.20;;;;;;5053178;28;20390;-71
2021/01/24 07:55:37;;;;;;;12.57;4.67;;;6.40;77.10;;;;;;5062677;28;20370;-71
2021/01/24 07:58:04;;;;;;;10.47;6.37;;;6.40;76.80;;;;;;5064860;28;20033;-71
2021/01/24 08:00:31;;;;;;;12.33;5.23;;;6.40;76.80;;;;;;5044269;28;20040;-72
2021/01/24 08:02:58;;;;;;;12.50;5.90;;;6.30;76.80;;;;;;5066732;28;20167;-72
2021/01/24 08:05:27;;;;;;;11.37;5.20;;;6.30;77.00;;;;;;5068517;28;20120;-73
2021/01/24 08:07:53;;;;;;;12.30;7.37;;;6.40;77.00;;;;;;5050859;28;20052;-72
2021/01/24 08:10:20;;;;;;;11.23;5.63;;;6.40;76.90;;;;;;5025900;28;20470;-72
2021/01/24 08:12:46;;;;;;;13.80;6.73;;;6.40;76.80;;;;;;5068582;28;20477;-72
2021/01/24 08:15:12;;;;;;;10.40;5.23;;;6.40;76.70;;;;;;5031461;28;20029;-72
2021/01/24 08:17:40;;;;;;;11.27;4.60;;;6.40;76.60;;;;;;5036174;28;20029;-76
2021/01/24 08:20:07;;;;;;;11.00;5.60;;;6.50;76.50;;;;;;5050143;28;20503;-75
2021/01/24 08:22:33;;;;;;;11.77;5.30;;;6.50;76.40;;;;;;5052937;28;20075;-71
2021/01/24 08:25:02;;;;;;;9.83;5.30;;;6.50;76.40;;;;;;5056551;28;20067;-74
2021/01/24 08:27:28;;;;;;;11.70;5.37;;;6.60;76.20;;;;;;5067604;28;20024;-71
2021/01/24 08:29:54;;;;;;;11.87;5.97;;;6.70;76.10;;;;;;5061150;28;20037;-75
2021/01/24 08:32:20;;;;;;;12.60;6.00;;;6.80;75.90;;;;;;5055026;28;20029;-73
2021/01/24 08:34:46;;;;;;;12.33;6.23;;;6.80;75.60;;;;;;5062569;28;20057;-74
2021/01/24 08:37:12;;;;;;;12.43;6.33;;;6.80;75.70;;;;;;5056779;28;20082;-73
2021/01/24 08:39:37;;;;;;;12.77;6.00;;;6.80;75.50;;;;;;5053323;28;20505;-74
2021/01/24 08:42:07;;;;;;;9.80;5.87;;;6.90;75.60;;;;;;5054049;28;20036;-75
2021/01/24 08:44:33;;;;;;;10.77;4.90;;;7.00;75.80;;;;;;5055558;28;20048;-74
2021/01/24 08:47:06;;;;;;;12.33;5.87;;;7.40;75.80;;;;;;5053001;28;20035;-75
2021/01/24 08:49:32;;;;;;;9.20;5.00;;;8.00;74.70;;;;;;5047234;28;20028;-74
2021/01/24 08:52:03;;;;;;;11.17;6.00;;;8.60;73.50;;;;;;5065041;28;20036;-74
2021/01/24 08:54:36;;;;;;;11.80;4.90;;;9.70;70.50;;;;;;5049922;28;20120;-74
2021/01/24 08:57:15;;;;;;;;;;;9.90;71.10;;;;;;5050449;28;20792;-74
2021/01/24 08:59:49;;;;;;;7.28;4.05;;;11.90;63.00;;;;;;5050286;28;20373;-74
2021/01/24 09:02:36;;;;;;;8.40;4.22;;;12.70;60.20;;;;;;5045258;28;20057;-74
2021/01/24 09:05:04;;;;;;;7.32;3.33;;;13.60;57.50;;;;;;5040567;28;20048;-74
2021/01/24 09:07:47;;;;;;;6.85;3.58;;;14.30;57.10;;;;;;5025251;28;20121;-77
2021/01/24 09:10:31;;;;;;;6.75;3.03;;;14.80;53.20;;;;;;5031179;28;20076;-73
2021/01/24 09:13:04;;;;;;;7.15;3.22;;;15.30;52.30;;;;;;5038467;28;20032;-75
2021/01/24 09:15:31;;;;;;;6.82;3.72;;;15.40;49.70;;;;;;5025996;28;20021;-75
2021/01/24 09:17:59;;;;;;;7.57;3.13;;;15.10;49.70;;;;;;5017828;28;20064;-70
2021/01/24 09:20:26;;;;;;;11.98;3.67;;;14.40;51.50;;;;;;5038369;28;20030;-68
2021/01/24 09:22:52;;;;;;;7.50;3.17;;;13.50;52.90;;;;;;5031444;28;20037;-68
2021/01/24 09:25:18;;;;;;;5.93;3.50;;;12.80;53.90;;;;;;5033992;28;20113;-68
2021/01/24 09:27:44;;;;;;;6.90;2.80;;;12.20;55.30;;;;;;5033050;28;20480;-68
2021/01/24 09:30:13;;;;;;;6.13;3.10;;;11.70;56.70;;;;;;5046319;28;20064;-68
2021/01/24 09:32:39;;;;;;;7.35;2.90;;;11.30;57.50;;;;;;5050318;28;20471;-69
2021/01/24 09:35:06;;;;;;;5.40;2.75;;;11.00;58.30;;;;;;5036338;28;20037;-70
2021/01/24 09:37:32;;;;;;;5.25;2.38;;;10.70;59.10;;;;;;5038793;28;20127;-73
2021/01/24 09:39:58;;;;;;;8.98;3.60;;;10.40;59.80;;;;;;5034131;28;20041;-70
2021/01/24 09:42:23;;;;;;;5.53;2.10;;;10.10;60.70;;;;;;5030433;28;20049;-70
2021/01/24 09:44:49;;;;;;;5.47;2.50;;;9.80;61.50;;;;;;5029991;28;20038;-71
2021/01/24 09:47:15;;;;;;;5.20;2.70;;;9.40;62.70;;;;;;5035167;28;20037;-71
2021/01/24 09:49:41;;;;;;;6.63;2.28;;;9.10;63.70;;;;;;5034239;28;20026;-69
2021/01/24 09:52:06;;;;;;;6.60;2.70;;;8.90;64.50;;;;;;5035642;28;20052;-72
2021/01/24 09:54:32;;;;;;;9.02;2.90;;;8.70;65.20;;;;;;5035205;28;20385;-74
2021/01/24 09:56:57;;;;;;;5.45;2.40;;;8.60;65.70;;;;;;5044162;28;20036;-73
2021/01/24 09:59:23;;;;;;;6.18;2.65;;;8.60;66.30;;;;;;5042280;28;20143;-71
2021/01/24 10:01:48;;;;;;;5.75;2.75;;;8.60;66.30;;;;;;5029565;28;20056;-71
2021/01/24 10:04:14;;;;;;;5.25;2.53;;;8.50;66.40;;;;;;5047278;28;20043;-70
2021/01/24 10:06:40;;;;;;;5.85;2.78;;;8.40;66.90;;;;;;5031614;28;20029;-70
2021/01/24 10:09:06;;;;;;;6.32;2.60;;;8.40;67.20;;;;;;5049058;28;20025;-70
2021/01/24 10:11:32;;;;;;;6.27;3.10;;;8.30;67.50;;;;;;5040300;28;20029;-73
2021/01/24 10:13:58;;;;;;;6.60;2.80;;;8.40;67.80;;;;;;5044860;28;20033;-68
2021/01/24 10:16:24;;;;;;;6.73;2.40;;;8.30;67.80;;;;;;5046327;28;20458;-68
2021/01/24 10:18:50;;;;;;;6.37;3.03;;;8.30;68.10;;;;;;5026304;28;20033;-68
2021/01/24 10:21:16;;;;;;;16.05;3.13;;;8.30;68.10;;;;;;5047776;28;20033;-68
2021/01/24 10:23:41;;;;;;;7.37;3.20;;;8.30;68.20;;;;;;5049669;28;20108;-68
2021/01/24 10:26:07;;;;;;;5.22;2.40;;;8.40;68.40;;;;;;5026191;28;20041;-68
2021/01/24 10:28:33;;;;;;;6.97;2.90;;;8.30;68.70;;;;;;5040016;28;20089;-68
2021/01/24 10:30:59;;;;;;;6.57;2.70;;;8.40;68.90;;;;;;5049768;28;20028;-69
2021/01/24 10:33:25;;;;;;;6.53;2.30;;;8.40;68.90;;;;;;5047856;28;20033;-70
2021/01/24 10:35:51;;;;;;;7.60;2.78;;;8.40;68.90;;;;;;5019495;28;20543;-68
2021/01/24 10:38:18;;;;;;;8.32;2.38;;;8.40;68.90;;;;;;5050126;28;20087;-68
2021/01/24 10:40:44;;;;;;;4.50;2.50;;;8.40;68.90;;;;;;5033625;28;20028;-68
2021/01/24 10:43:10;;;;;;;6.70;2.42;;;8.50;68.80;;;;;;5040031;28;20039;-68
2021/01/24 10:45:37;;;;;;;5.85;2.78;;;8.60;68.70;;;;;;5052555;28;20091;-68
2021/01/24 10:48:05;;;;;;;6.68;2.58;;;8.60;68.60;;;;;;5041827;28;20033;-68
2021/01/24 10:50:30;;;;;;;5.70;2.63;;;8.60;68.50;;;;;;5043754;28;20021;-69
2021/01/24 10:52:56;;;;;;;5.07;2.38;;;8.60;68.70;;;;;;5043904;28;20057;-68
2021/01/24 10:55:24;;;;;;;5.35;2.78;;;8.70;68.60;;;;;;5038314;28;20086;-67
2021/01/24 10:57:50;;;;;;;7.63;2.38;;;8.70;68.60;;;;;;5051854;28;20067;-67
2021/01/24 11:00:16;;;;;;;5.60;2.40;;;8.70;68.70;;;;;;5031316;28;20502;-67
2021/01/24 11:02:42;;;;;;;5.15;2.72;;;8.80;68.60;;;;;;5046813;28;20079;-68
2021/01/24 11:05:08;;;;;;;6.68;2.20;;;8.80;68.70;;;;;;5020381;28;20038;-72
2021/01/24 11:07:34;;;;;;;6.10;2.25;;;8.80;68.50;;;;;;5042942;28;20028;-68
2021/01/24 11:10:00;;;;;;;7.40;2.47;;;8.80;68.30;;;;;;5040055;28;20044;-72
2021/01/24 11:12:26;;;;;;;4.93;2.35;;;8.90;68.40;;;;;;5007762;28;20030;-67
2021/01/24 11:14:51;;;;;;;6.82;2.40;;;8.90;68.30;;;;;;5037442;28;20033;-67
2021/01/24 11:17:18;;;;;;;7.53;2.72;;;9.00;68.10;;;;;;5048386;28;20036;-73
2021/01/24 11:19:51;;;;;;;8.02;2.47;;;9.20;67.60;;;;;;5033066;28;20079;-68
2021/01/24 11:22:17;;;;;;;6.13;2.15;;;9.20;67.40;;;;;;5042506;28;20072;-68
2021/01/24 11:24:43;;;;;;;4.65;1.92;;;9.30;67.20;;;;;;5048548;28;20066;-69
2021/01/24 11:27:08;;;;;;;6.90;2.28;;;9.40;66.90;;;;;;5030782;28;20434;-69
2021/01/24 11:29:34;;;;;;;6.03;1.73;;;9.50;66.50;;;;;;5032876;28;20032;-68
2021/01/24 11:32:00;;;;;;;4.93;1.75;;;9.60;66.10;;;;;;5032949;28;20043;-69
2021/01/24 11:34:26;;;;;;;5.47;2.15;;;9.60;66.20;;;;;;4998187;28;20029;-71
2021/01/24 11:36:52;;;;;;;4.43;1.80;;;9.70;65.90;;;;;;5046349;28;20036;-68
2021/01/24 11:39:17;;;;;;;4.45;1.90;;;9.80;65.70;;;;;;5014686;28;20878;-68
2021/01/24 11:41:43;;;;;;;4.60;2.05;;;9.90;65.20;;;;;;5041314;28;20036;-68
2021/01/24 11:44:09;;;;;;;5.45;2.33;;;10.10;64.00;;;;;;5044007;28;20051;-68
2021/01/24 11:46:34;;;;;;;4.30;2.00;;;10.70;63.10;;;;;;5032190;28;20387;-68
2021/01/24 11:49:00;;;;;;;8.35;3.13;;;11.30;61.20;;;;;;5031501;28;20029;-72
2021/01/24 11:51:26;;;;;;;7.18;2.25;;;11.60;60.40;;;;;;5032512;28;20559;-67
2021/01/24 11:53:51;;;;;;;8.65;2.97;;;11.70;59.40;;;;;;5045985;28;20043;-73
2021/01/24 11:56:17;;;;;;;7.75;2.35;;;11.60;58.90;;;;;;5021992;28;20033;-67
2021/01/24 11:58:43;;;;;;;4.85;2.10;;;11.40;58.90;;;;;;5038567;28;20029;-74
2021/01/24 12:01:08;;;;;;;5.28;2.10;;;11.30;59.20;;;;;;5045451;28;20021;-69
2021/01/24 12:03:34;;;;;;;7.70;3.10;;;11.10;59.30;;;;;;5030187;28;20057;-69
2021/01/24 12:06:00;;;;;;;11.25;3.55;;;11.00;59.80;;;;;;5031275;28;20056;-69
2021/01/24 12:08:25;;;;;;;7.78;1.90;;;10.90;59.80;;;;;;5013911;28;20025;-68
2021/01/24 12:10:51;;;;;;;7.78;2.40;;;10.80;60.20;;;;;;5034502;28;20053;-68
2021/01/24 12:13:17;;;;;;;7.75;2.33;;;10.70;59.90;;;;;;5033554;28;20539;-68
2021/01/24 12:15:42;;;;;;;7.38;2.95;;;10.80;60.60;;;;;;5038017;28;20044;-68
2021/01/24 12:18:08;;;;;;;5.28;2.20;;;10.80;60.30;;;;;;5014085;28;20037;-69
2021/01/24 12:20:33;;;;;;;6.70;3.03;;;10.80;60.00;;;;;;5047635;28;20112;-68
2021/01/24 12:22:59;;;;;;;8.32;2.58;;;10.90;60.60;;;;;;5051605;28;20502;-69
2021/01/24 12:25:25;;;;;;;7.70;2.13;;;10.80;59.90;;;;;;5050987;28;20428;-68
2021/01/24 12:27:50;;;;;;;6.55;2.42;;;10.80;60.10;;;;;;5049975;28;20605;-68
2021/01/24 12:30:16;;;;;;;7.35;2.28;;;10.50;60.10;;;;;;5049032;28;20139;-69
2021/01/24 12:32:42;;;;;;;7.82;3.13;;;10.40;60.70;;;;;;5050865;28;20021;-71
2021/01/24 12:35:09;;;;;;;8.63;2.92;;;10.40;61.10;;;;;;5032324;28;20327;-68
2021/01/24 12:37:35;;;;;;;10.63;2.90;;;10.40;61.30;;;;;;5050573;28;20029;-68
2021/01/24 12:40:02;;;;;;;7.22;2.35;;;10.50;61.00;;;;;;5050693;28;20024;-71
2021/01/24 12:42:28;;;;;;;6.65;2.20;;;10.60;61.10;;;;;;5036327;28;20041;-68
2021/01/24 12:44:53;;;;;;;8.32;2.35;;;10.80;60.60;;;;;;5030792;28;20508;-68
2021/01/24 12:47:19;;;;;;;7.45;3.00;;;10.90;59.90;;;;;;5026993;28;20043;-72